createdAt,value
2019-02-19T00:25:41.392Z,100425.13
2019-02-19T00:59:25.915Z,100421.52
2019-02-19T01:01:55.299Z,100419.80
2019-02-19T01:04:24.526Z,100416.59
2019-02-19T01:06:53.573Z,100419.23
2019-02-19T01:09:22.661Z,100418.66
2019-02-19T01:11:51.843Z,100416.19
2019-02-19T01:14:20.963Z,100420.63
2019-02-19T01:16:50.126Z,100416.81
2019-02-19T01:19:19.285Z,100417.08
2019-02-19T01:21:48.699Z,100417.70
2019-02-19T01:24:17.802Z,100419.80
2019-02-19T01:26:47.118Z,100419.57
2019-02-19T01:29:16.629Z,100420.22
2019-02-19T01:31:45.687Z,100422.30
2019-02-19T01:34:14.798Z,100420.30
2019-02-19T01:36:43.861Z,100423.48
2019-02-19T01:39:13.070Z,100420.98
2019-02-19T01:41:42.403Z,100419.93
2019-02-19T01:44:11.483Z,100415.73
2019-02-19T01:46:40.756Z,100418.11
2019-02-19T01:49:09.964Z,100425.22
2019-02-19T01:51:39.259Z,100409.13
2019-02-19T01:54:08.507Z,100416.14
2019-02-19T01:56:37.603Z,100414.14
2019-02-19T01:59:06.762Z,100407.13
2019-02-19T02:01:36.205Z,100410.31
2019-02-19T02:04:05.391Z,100413.59
2019-02-19T02:06:34.584Z,100407.39
2019-02-19T02:09:05.591Z,100410.55
2019-02-19T02:11:34.990Z,100416.01
2019-02-19T02:14:04.161Z,100417.42
2019-02-19T02:16:33.384Z,100418.65
2019-02-19T02:19:02.592Z,100412.55
2019-02-19T02:21:31.981Z,100417.16
2019-02-19T02:24:01.076Z,100414.91
2019-02-19T02:26:30.215Z,100408.58
2019-02-19T02:28:59.542Z,100410.67
2019-02-19T02:31:28.726Z,100406.16
2019-02-19T02:33:57.950Z,100417.00
2019-02-19T02:36:27.080Z,100412.84
2019-02-19T02:38:56.286Z,100416.09
2019-02-19T02:41:25.650Z,100413.73
2019-02-19T02:43:54.805Z,100413.09
2019-02-19T02:46:24.067Z,100413.33
2019-02-19T02:48:53.360Z,100414.77
2019-02-19T02:51:22.498Z,100414.77
2019-02-19T02:53:51.766Z,100410.88
2019-02-19T02:56:20.914Z,100410.69
2019-02-19T02:58:50.211Z,100416.14
2019-02-19T03:01:19.316Z,100417.53
2019-02-19T03:03:48.657Z,100416.58
2019-02-19T03:06:29.368Z,100414.22
2019-02-19T03:08:58.822Z,100413.50
2019-02-19T03:11:27.939Z,100413.67
2019-02-19T03:13:57.146Z,100411.78
2019-02-19T03:16:26.436Z,100412.45
2019-02-19T03:18:55.679Z,100415.27
2019-02-19T03:21:24.933Z,100413.03
2019-02-19T03:23:54.030Z,100411.14
2019-02-19T03:26:23.256Z,100412.16
2019-02-19T03:28:52.481Z,100418.21
2019-02-19T03:31:21.739Z,100411.61
2019-02-19T03:33:50.933Z,100413.81
2019-02-19T03:36:20.059Z,100420.07
2019-02-19T03:38:49.481Z,100411.13
2019-02-19T03:41:18.628Z,100412.45
2019-02-19T03:43:47.714Z,100417.67
2019-02-19T03:46:17.035Z,100412.02
2019-02-19T03:48:46.122Z,100411.88
2019-02-19T03:51:15.567Z,100415.00
2019-02-19T03:53:44.780Z,100419.36
2019-02-19T03:56:13.975Z,100420.03
2019-02-19T03:58:43.135Z,100425.89
2019-02-19T04:01:12.319Z,100431.48
2019-02-19T04:03:41.833Z,100426.20
2019-02-19T04:06:10.963Z,100425.59
2019-02-19T04:08:40.055Z,100440.36
2019-02-19T04:11:09.264Z,100437.48
2019-02-19T04:13:38.504Z,100429.48
2019-02-19T04:16:07.737Z,100438.94
2019-02-19T04:18:36.888Z,100441.44
2019-02-19T04:21:06.164Z,100441.78
2019-02-19T04:23:37.618Z,100438.76
2019-02-19T04:26:06.706Z,100440.34
2019-02-19T04:28:35.808Z,100441.13
2019-02-19T04:31:05.058Z,100439.13
2019-02-19T04:33:34.358Z,100435.72
2019-02-19T04:36:03.655Z,100440.22
2019-02-19T04:38:32.878Z,100444.31
2019-02-19T04:41:02.077Z,100439.48
2019-02-19T04:43:31.154Z,100439.30
2019-02-19T04:46:00.311Z,100440.45
2019-02-19T04:48:29.479Z,100444.08
2019-02-19T04:50:58.751Z,100431.73
2019-02-19T04:53:27.966Z,100440.67
2019-02-19T04:55:57.350Z,100437.24
2019-02-19T04:58:26.394Z,100439.68
2019-02-19T05:00:55.669Z,100432.66
2019-02-19T05:03:24.987Z,100425.66
2019-02-19T05:05:55.905Z,100425.52
2019-02-19T05:08:25.207Z,100427.78
2019-02-19T05:10:54.311Z,100432.15
2019-02-19T05:13:23.606Z,100433.34
2019-02-19T05:15:54.861Z,100430.91
2019-02-19T05:18:24.125Z,100438.90
2019-02-19T05:20:53.368Z,100442.27
2019-02-19T05:23:22.468Z,100446.15
2019-02-19T05:25:51.911Z,100447.02
2019-02-19T05:28:21.078Z,100447.02
2019-02-19T05:30:50.229Z,100448.27
2019-02-19T05:33:19.498Z,100449.45
2019-02-19T05:35:48.679Z,100447.98
2019-02-19T05:38:17.855Z,100454.27
2019-02-19T05:40:47.108Z,100451.25
2019-02-19T05:43:16.222Z,100452.33
2019-02-19T05:45:45.511Z,100450.30
2019-02-19T05:48:14.628Z,100455.20
2019-02-19T05:50:43.845Z,100453.09
2019-02-19T05:53:13.307Z,100448.92
2019-02-19T05:55:42.446Z,100452.48
2019-02-19T05:58:11.603Z,100449.38
2019-02-19T06:00:40.908Z,100449.45
2019-02-19T06:03:10.226Z,100459.75
2019-02-19T06:05:39.345Z,100459.01
2019-02-19T06:08:08.580Z,100469.06
2019-02-19T06:10:37.809Z,100470.57
2019-02-19T06:13:07.565Z,100476.11
2019-02-19T06:15:36.630Z,100473.81
2019-02-19T06:18:06.267Z,100471.63
2019-02-19T06:20:35.613Z,100482.72
2019-02-19T06:23:04.746Z,100481.58
2019-02-19T06:25:33.960Z,100485.34
2019-02-19T06:28:03.288Z,100487.03
2019-02-19T06:30:32.373Z,100496.36
2019-02-19T06:33:01.833Z,100492.95
2019-02-19T06:35:31.042Z,100495.07
2019-02-19T06:38:00.296Z,100497.79
2019-02-19T06:40:30.227Z,100496.78
2019-02-19T06:42:59.755Z,100498.23
2019-02-19T06:45:29.027Z,100502.65
2019-02-19T06:47:58.137Z,100502.91
2019-02-19T06:50:27.237Z,100507.40
2019-02-19T06:52:56.519Z,100502.66
2019-02-19T06:55:25.702Z,100512.13
2019-02-19T06:57:54.895Z,100516.27
2019-02-19T07:00:24.351Z,100513.50
2019-02-19T07:03:01.243Z,100511.56
2019-02-19T07:05:30.346Z,100516.23
2019-02-19T07:07:59.612Z,100514.52
2019-02-19T07:10:28.949Z,100522.04
2019-02-19T07:12:58.204Z,100525.27
2019-02-19T07:15:27.323Z,100516.69
2019-02-19T07:17:56.582Z,100508.63
2019-02-19T07:20:25.835Z,100516.69
2019-02-19T07:22:55.130Z,100513.29
2019-02-19T07:25:24.228Z,100511.08
2019-02-19T07:27:53.434Z,100518.17
2019-02-19T07:30:22.538Z,100521.38
2019-02-19T07:32:51.945Z,100526.41
2019-02-19T07:35:21.040Z,100523.88
2019-02-19T07:37:51.151Z,100532.25
2019-02-19T07:40:20.395Z,100527.84
2019-02-19T07:42:49.917Z,100528.42
2019-02-19T07:45:21.004Z,100525.84
2019-02-19T07:47:50.359Z,100530.79
2019-02-19T07:50:19.515Z,100528.28
2019-02-19T07:52:48.620Z,100533.57
2019-02-19T07:55:17.760Z,100540.62
2019-02-19T07:57:50.023Z,100545.97
2019-02-19T08:00:19.275Z,100547.14
2019-02-19T08:02:48.620Z,100542.62
2019-02-19T08:05:17.962Z,100543.38
2019-02-19T08:07:47.094Z,100552.28
2019-02-19T08:10:16.196Z,100554.56
2019-02-19T08:12:45.351Z,100566.64
2019-02-19T08:15:14.952Z,100562.92
2019-02-19T08:17:44.587Z,100562.92
2019-02-19T08:20:16.174Z,100574.98
2019-02-19T08:22:45.065Z,100574.98
2019-02-19T08:25:14.275Z,100577.83
2019-02-19T08:27:43.623Z,100570.08
2019-02-19T08:30:12.763Z,100569.13
2019-02-19T08:32:42.023Z,100578.36
2019-02-19T08:35:11.488Z,100578.36
2019-02-19T08:37:40.606Z,100588.72
2019-02-19T08:40:10.117Z,100588.86
2019-02-19T08:42:39.235Z,100599.31
2019-02-19T08:45:08.894Z,100593.87
2019-02-19T08:47:42.628Z,100593.02
2019-02-19T08:50:09.362Z,100593.02
2019-02-19T08:52:38.682Z,100605.45
2019-02-19T08:55:07.923Z,100604.36
2019-02-19T08:57:37.123Z,100619.61
2019-02-19T09:00:07.612Z,100619.61
2019-02-19T09:02:36.702Z,100607.66
2019-02-19T09:05:06.037Z,100614.59
2019-02-19T09:07:35.185Z,100614.59
2019-02-19T09:10:04.457Z,100620.28
2019-02-19T09:12:33.538Z,100623.33
2019-02-19T09:15:02.599Z,100629.14
2019-02-19T09:17:32.161Z,100630.48
2019-02-19T09:20:01.296Z,100635.20
2019-02-19T09:22:30.431Z,100638.25
2019-02-19T09:24:59.510Z,100638.78
2019-02-19T09:27:28.662Z,100640.95
2019-02-19T09:29:58.075Z,100640.28
2019-02-19T09:32:27.237Z,100650.22
2019-02-19T09:34:56.485Z,100650.20
2019-02-19T09:37:25.670Z,100648.19
2019-02-19T09:39:54.796Z,100656.48
2019-02-19T09:42:24.131Z,100666.45
2019-02-19T09:44:53.231Z,100677.47
2019-02-19T09:47:22.568Z,100677.75
2019-02-19T09:49:51.723Z,100672.91
2019-02-19T09:52:20.947Z,100668.81
2019-02-19T09:54:50.145Z,100670.95
2019-02-19T09:57:19.404Z,100680.75
2019-02-19T09:59:48.589Z,100680.62
2019-02-19T10:02:17.761Z,100680.71
2019-02-19T10:04:47.063Z,100676.07
2019-02-19T10:07:16.391Z,100681.61
2019-02-19T10:09:45.503Z,100675.22
2019-02-19T10:12:14.894Z,100680.59
2019-02-19T10:14:44.047Z,100691.36
2019-02-19T10:17:13.203Z,100698.12
2019-02-19T10:19:42.362Z,100700.07
2019-02-19T10:22:11.520Z,100703.12
2019-02-19T10:24:40.689Z,100703.68
2019-02-19T10:27:09.976Z,100710.94
2019-02-19T10:29:39.216Z,100712.42
2019-02-19T10:32:08.863Z,100708.48
2019-02-19T10:34:37.988Z,100705.43
2019-02-19T10:37:07.107Z,100709.39
2019-02-19T10:39:36.398Z,100705.06
2019-02-19T10:42:05.473Z,100705.72
2019-02-19T10:44:34.713Z,100706.09
2019-02-19T10:47:03.929Z,100707.84
2019-02-19T10:49:33.148Z,100706.27
2019-02-19T10:52:02.471Z,100711.28
2019-02-19T10:54:31.736Z,100715.72
2019-02-19T10:57:01.103Z,100719.36
2019-02-19T10:59:30.458Z,100719.90
2019-02-19T11:01:59.581Z,100708.11
2019-02-19T11:04:28.687Z,100720.90
2019-02-19T11:06:57.791Z,100727.41
2019-02-19T11:09:26.889Z,100729.94
2019-02-19T11:11:58.077Z,100732.27
2019-02-19T11:14:27.229Z,100725.31
2019-02-19T11:16:56.321Z,100727.44
2019-02-19T11:20:11.160Z,100730.02
2019-02-19T11:37:33.637Z,100724.25
2019-02-19T11:53:41.468Z,100707.43
2019-02-19T11:56:10.855Z,100701.41
2019-02-19T11:58:40.251Z,100706.06
2019-02-19T12:01:10.351Z,100710.00
2019-02-19T12:03:39.580Z,100714.92
2019-02-19T12:06:08.849Z,100707.22
2019-02-19T12:08:39.251Z,100707.78
2019-02-19T12:11:08.526Z,100699.06
2019-02-19T12:13:40.592Z,100697.20
2019-02-19T12:16:09.711Z,100698.60
2019-02-19T12:18:45.916Z,100707.96
2019-02-19T12:21:10.706Z,100703.91
2019-02-19T12:23:40.251Z,100700.26
2019-02-19T12:26:09.660Z,100704.19
2019-02-19T12:28:38.760Z,100699.23
2019-02-19T12:31:07.889Z,100698.43
2019-02-19T12:33:37.036Z,100701.10
2019-02-19T12:36:06.198Z,100700.44
2019-02-19T12:38:35.337Z,100698.11
2019-02-19T12:41:04.792Z,100692.06
2019-02-19T12:43:34.015Z,100690.29
2019-02-19T12:46:03.116Z,100685.20
2019-02-19T12:48:32.532Z,100684.59
2019-02-19T12:51:01.919Z,100679.18
2019-02-19T12:53:31.195Z,100681.67
2019-02-19T12:56:00.436Z,100678.08
2019-02-19T12:58:31.575Z,100680.09
2019-02-19T13:01:00.819Z,100677.09
2019-02-19T13:03:30.172Z,100669.03
2019-02-19T13:05:59.706Z,100669.97
2019-02-19T13:08:29.006Z,100673.75
2019-02-19T13:10:58.238Z,100674.56
2019-02-19T13:13:27.332Z,100672.14
2019-02-19T13:15:56.622Z,100672.22
2019-02-19T13:18:26.073Z,100666.63
2019-02-19T13:20:55.272Z,100668.70
2019-02-19T13:23:24.379Z,100674.08
2019-02-19T13:25:53.441Z,100670.38
2019-02-19T13:28:22.839Z,100664.65
2019-02-19T13:34:23.427Z,100645.54
2019-02-19T13:36:52.885Z,100672.81
2019-02-19T13:39:22.327Z,100668.12
2019-02-19T13:41:51.485Z,100662.93
2019-02-19T13:44:20.727Z,100671.69
2019-02-19T13:46:50.241Z,100666.52
2019-02-19T13:49:19.337Z,100669.08
2019-02-19T13:51:48.622Z,100669.55
2019-02-19T13:54:31.881Z,100678.08
2019-02-19T13:57:01.364Z,100674.37
2019-02-19T13:59:30.579Z,100681.36
2019-02-19T14:02:00.058Z,100675.50
2019-02-19T14:04:29.175Z,100675.28
2019-02-19T14:06:59.282Z,100676.24
2019-02-19T14:09:28.522Z,100673.63
2019-02-19T14:11:57.839Z,100670.08
2019-02-19T14:14:55.208Z,100675.07
2019-02-19T14:17:24.704Z,100674.57
2019-02-19T14:19:58.598Z,100677.34
2019-02-19T14:22:46.655Z,100671.55
2019-02-19T14:25:40.459Z,100663.26
2019-02-19T14:28:27.326Z,100660.83
2019-02-19T14:31:24.590Z,100665.47
2019-02-19T14:34:15.609Z,100666.89
2019-02-19T14:37:06.899Z,100666.93
2019-02-19T14:39:58.016Z,100661.45
2019-02-19T14:42:46.209Z,100663.75
2019-02-19T14:45:34.314Z,100670.73
2019-02-19T14:48:31.979Z,100671.20
2019-02-19T14:51:38.558Z,100665.94
2019-02-19T14:54:25.477Z,100667.46
2019-02-19T14:57:25.392Z,100662.66
2019-02-19T15:00:12.455Z,100671.42
2019-02-19T15:02:59.766Z,100679.34
2019-02-19T15:05:46.826Z,100673.98
2019-02-19T15:08:48.257Z,100677.28
2019-02-19T15:11:39.484Z,100674.12
2019-02-19T15:14:21.725Z,100665.95
2019-02-19T15:17:08.554Z,100664.33
2019-02-19T15:19:49.805Z,100666.70
2019-02-19T15:22:29.678Z,100667.69
2019-02-19T15:25:12.332Z,100662.93
2019-02-19T15:28:10.602Z,100666.27
2019-02-19T15:30:53.827Z,100668.84
2019-02-19T15:33:39.819Z,100662.89
2019-02-19T15:36:28.167Z,100661.89
2019-02-19T15:39:19.121Z,100658.06
2019-02-19T15:42:13.286Z,100658.97
2019-02-19T15:45:12.108Z,100659.02
2019-02-19T15:47:59.570Z,100653.92
2019-02-19T15:50:47.636Z,100657.81
2019-02-19T15:53:38.929Z,100656.61
2019-02-19T15:56:36.423Z,100652.95
2019-02-19T15:59:23.196Z,100651.80
2019-02-19T16:02:20.404Z,100656.17
2019-02-19T16:05:17.688Z,100654.66
2019-02-19T16:08:15.784Z,100659.16
2019-02-19T16:10:58.782Z,100657.70
2019-02-19T16:13:50.229Z,100660.92
2019-02-19T16:16:39.080Z,100660.77
2019-02-19T16:19:16.081Z,100656.38
2019-02-19T16:21:53.311Z,100661.97
2019-02-19T16:24:41.084Z,100659.90
2019-02-19T16:27:28.100Z,100671.82
2019-02-19T16:30:06.853Z,100669.53
2019-02-19T16:32:53.555Z,100662.33
2019-02-19T16:35:43.584Z,100669.12
2019-02-19T16:38:25.944Z,100675.59
2019-02-19T16:41:05.289Z,100677.47
2019-02-19T16:43:57.723Z,100671.68
2019-02-19T16:46:44.671Z,100674.22
2019-02-19T16:49:35.642Z,100671.65
2019-02-19T16:52:29.519Z,100681.91
2019-02-19T16:55:17.747Z,100678.61
2019-02-19T16:58:03.077Z,100678.03
2019-02-19T17:00:37.647Z,100682.44
2019-02-19T17:03:29.081Z,100681.99
2019-02-19T17:06:26.265Z,100674.81
2019-02-19T17:09:17.526Z,100687.69
2019-02-19T17:12:05.573Z,100687.91
2019-02-19T17:14:57.468Z,100685.16
2019-02-19T17:17:45.570Z,100685.69
2019-02-19T17:20:30.528Z,100684.04
2019-02-19T17:23:08.940Z,100687.03
2019-02-19T17:25:55.965Z,100682.03
2019-02-19T17:28:37.128Z,100687.41
2019-02-19T17:31:15.057Z,100686.77
2019-02-19T17:33:57.090Z,100688.45
2019-02-19T17:36:46.062Z,100694.67
2019-02-19T17:39:37.637Z,100694.86
2019-02-19T17:42:11.883Z,100694.24
2019-02-19T17:45:12.680Z,100701.93
2019-02-19T17:48:03.524Z,100705.98
2019-02-19T17:50:57.157Z,100710.36
2019-02-19T17:53:54.753Z,100703.88
2019-02-19T17:56:33.368Z,100708.39
2019-02-19T17:59:13.271Z,100707.59
2019-02-19T18:02:05.846Z,100714.42
2019-02-19T18:05:03.319Z,100719.44
2019-02-19T18:07:55.533Z,100720.95
2019-02-19T18:10:44.556Z,100723.77
2019-02-19T18:13:31.914Z,100732.78
2019-02-19T18:16:23.674Z,100737.41
2019-02-19T18:18:53.903Z,100739.73
2019-02-19T18:21:23.995Z,100739.89
2019-02-19T18:23:53.271Z,100746.72
2019-02-19T18:26:23.164Z,100740.50
2019-02-19T18:28:52.856Z,100738.80
2019-02-19T18:31:22.402Z,100743.11
2019-02-19T18:33:51.651Z,100738.91
2019-02-19T18:36:21.700Z,100742.37
2019-02-19T18:38:51.433Z,100747.20
2019-02-19T18:41:20.627Z,100753.81
2019-02-19T18:43:51.404Z,100752.61
2019-02-19T18:46:21.083Z,100750.86
2019-02-19T18:48:51.404Z,100751.96
2019-02-19T18:51:21.053Z,100756.08
2019-02-19T18:53:50.519Z,100754.19
2019-02-19T18:56:20.579Z,100755.45
2019-02-19T18:58:49.877Z,100760.75
2019-02-19T19:01:20.770Z,100753.70
2019-02-19T19:03:52.639Z,100752.17
2019-02-19T19:06:22.499Z,100759.69
2019-02-19T19:08:52.222Z,100756.25
2019-02-19T19:11:22.878Z,100753.22
2019-02-19T19:13:52.085Z,100752.44
2019-02-19T19:16:21.271Z,100757.22
2019-02-19T19:18:50.601Z,100758.61
2019-02-19T19:21:19.853Z,100757.73
2019-02-19T19:23:49.225Z,100762.83
2019-02-19T19:26:18.478Z,100756.55
2019-02-19T19:28:47.634Z,100752.73
2019-02-19T19:31:16.779Z,100754.74
2019-02-19T19:33:46.487Z,100753.56
2019-02-19T19:36:15.830Z,100758.25
2019-02-19T19:38:45.099Z,100765.77
2019-02-19T19:41:15.290Z,100760.42
2019-02-19T19:43:44.516Z,100765.89
2019-02-19T19:46:14.159Z,100765.92
2019-02-19T19:48:45.890Z,100760.76
2019-02-19T19:51:17.324Z,100769.76
2019-02-19T19:53:45.675Z,100767.44
2019-02-19T19:56:14.814Z,100767.44
2019-02-19T19:58:44.190Z,100776.20
2019-02-19T20:01:13.405Z,100782.98
2019-02-19T20:03:42.657Z,100779.41
2019-02-19T20:06:11.874Z,100787.30
2019-02-19T20:08:41.246Z,100776.27
2019-02-19T20:11:10.540Z,100776.27
2019-02-19T20:13:40.412Z,100774.20
2019-02-19T20:16:09.580Z,100795.86
2019-02-19T20:18:39.436Z,100759.06
2019-02-19T20:21:08.826Z,100791.69
2019-02-19T20:23:38.098Z,100791.69
2019-02-19T20:26:07.501Z,100801.92
2019-02-19T20:28:36.867Z,100800.25
2019-02-19T20:31:06.368Z,100808.21
2019-02-19T20:33:37.295Z,100813.52
2019-02-19T20:36:06.873Z,100813.52
2019-02-19T20:38:36.212Z,100810.41
2019-02-19T20:41:06.164Z,100810.41
2019-02-19T20:43:35.514Z,100819.87
2019-02-19T20:46:04.969Z,100822.33
2019-02-19T20:48:34.123Z,100816.77
2019-02-19T20:51:03.370Z,100824.27
2019-02-19T20:53:32.479Z,100825.54
2019-02-19T20:56:01.886Z,100825.54
2019-02-19T20:58:31.130Z,100822.83
2019-02-19T21:01:00.315Z,100819.18
2019-02-19T21:03:33.469Z,100819.18
2019-02-19T21:06:03.698Z,100832.50
2019-02-19T21:08:33.046Z,100832.50
2019-02-19T21:11:02.295Z,100832.36
2019-02-19T21:13:32.113Z,100832.36
2019-02-19T21:16:02.132Z,100831.31
2019-02-19T21:18:31.854Z,100832.06
2019-02-19T21:21:01.020Z,100833.80
2019-02-19T21:23:30.338Z,100833.80
2019-02-19T21:25:59.521Z,100826.59
2019-02-19T21:28:28.734Z,100836.11
2019-02-19T21:30:58.747Z,100825.98
2019-02-19T21:33:27.868Z,100829.11
2019-02-19T21:35:58.047Z,100829.11
2019-02-19T21:38:27.422Z,100821.77
2019-02-19T21:40:56.550Z,100826.52
2019-02-19T21:43:25.746Z,100826.52
2019-02-19T21:45:55.010Z,100816.34
2019-02-19T21:48:25.154Z,100821.44
2019-02-19T21:50:54.351Z,100826.25
2019-02-19T21:53:23.655Z,100823.03
2019-02-19T21:55:52.850Z,100823.03
2019-02-19T21:58:21.970Z,100825.00
2019-02-19T22:00:51.160Z,100827.04
2019-02-19T22:03:20.688Z,100829.62
2019-02-19T22:05:49.905Z,100828.84
2019-02-19T22:08:19.105Z,100835.59
2019-02-19T22:10:48.388Z,100835.59
2019-02-19T22:13:17.707Z,100829.92
2019-02-19T22:15:46.962Z,100831.48
2019-02-19T22:18:16.260Z,100827.58
2019-02-19T22:20:52.673Z,100837.93
2019-02-19T22:23:22.356Z,100837.93
2019-02-19T22:25:51.598Z,100834.20
2019-02-19T22:28:22.862Z,100828.11
2019-02-19T22:30:51.773Z,100834.35
2019-02-19T22:33:21.489Z,100827.34
2019-02-19T22:35:51.028Z,100828.34
2019-02-19T22:38:20.372Z,100828.34
2019-02-19T22:40:55.149Z,100831.71
2019-02-19T22:43:20.712Z,100828.20
2019-02-19T22:45:49.825Z,100828.20
2019-02-19T22:48:19.409Z,100824.75
2019-02-19T22:50:48.641Z,100824.75
2019-02-19T22:53:35.336Z,100833.58
2019-02-19T22:56:10.091Z,100833.58
2019-02-19T22:58:39.488Z,100833.56
2019-02-19T23:01:15.118Z,100834.08
2019-02-19T23:03:44.551Z,100834.08
2019-02-19T23:06:13.893Z,100834.42
2019-02-19T23:08:43.106Z,100834.34
2019-02-19T23:11:12.268Z,100827.80
2019-02-19T23:13:41.785Z,100837.30
2019-02-19T23:16:10.925Z,100837.30
2019-02-19T23:18:40.056Z,100839.18
2019-02-19T23:21:09.270Z,100838.62
2019-02-19T23:23:38.433Z,100840.26
2019-02-19T23:26:07.644Z,100841.15
2019-02-19T23:28:36.988Z,100842.48
2019-02-19T23:31:06.163Z,100840.95
2019-02-19T23:33:35.403Z,100842.36
2019-02-19T23:36:09.199Z,100836.98
2019-02-19T23:38:38.525Z,100836.98
2019-02-19T23:41:08.008Z,100843.17
2019-02-19T23:43:37.303Z,100839.02
2019-02-19T23:46:06.680Z,100846.45
2019-02-19T23:48:35.795Z,100843.53
2019-02-19T23:51:04.912Z,100844.09
2019-02-19T23:53:34.386Z,100847.06
2019-02-19T23:56:03.459Z,100843.23
2019-02-19T23:58:32.536Z,100848.78
